Latest Weather Observations for Armidale Airport

IDN60801

Issued at 9:05 am EST Tuesday 2 September 2014 (issued every 30 minutes, with the page automatically refreshed every 10 minutes)

About weather observations | Map of weather stations | Latest weather observations for NSW | Other Formats
Station Details ID: 056238 Name: ARMIDALE AIRPORT AWS Lat: -30.53 Lon: 151.62 Height: 1079.0 m
Data from the previous 72 hours. | See also: Recent months for locations in New South Wales
Date/Time
EST
Temp
°C
App
Temp
°C
Dew
Point
Rel
Hum
%
Delta-T
°C
Wind Press
QNH
hPa
Press
MSL
hPa
Rain
since 9 am
mm
Dir
 
Spd
km/h
Gust
km/h
Spd
kts
Gust
kts
02/09:00am 11.4 4.1 2.2 53 4.2 W 30 39 16 21 1012.9 1010.8 0.0
02/08:30am 10.2 4.5 2.6 59 3.5 W 22 28 12 15 1012.8 - 0.0
02/08:00am 10.2 3.6 2.3 58 3.6 W 26 35 14 19 1012.7 1010.6 0.0
02/07:30am 12.4 6.5 1.7 48 4.9 WNW 22 33 12 18 1012.0 - 0.0
02/07:00am 10.6 5.6 1.4 53 4.1 NW 17 24 9 13 1011.7 1009.5 0.0
02/06:30am 9.4 4.0 1.1 56 3.6 NW 19 24 10 13 1011.7 - 0.0
02/06:00am 8.2 3.2 1.4 62 3.0 NW 17 24 9 13 1011.9 1009.8 0.0
02/05:30am 7.8 3.6 1.6 65 2.7 NW 13 17 7 9 1012.1 - 0.0
02/05:00am 7.8 2.9 2.1 67 2.5 NW 17 20 9 11 1012.4 1010.2 0.0
02/04:30am 7.8 3.5 1.2 63 2.9 NW 13 17 7 9 1012.5 - 0.0
02/04:00am 7.8 4.0 1.6 65 2.7 NNW 11 15 6 8 1012.7 1010.6 0.0
02/03:30am 8.1 4.6 1.5 63 2.9 N 9 13 5 7 1013.0 - 0.0
02/03:00am 7.0 5.2 1.3 67 2.5 CALM 0 6 0 3 1013.6 1011.5 0.0
02/02:30am 7.7 4.6 1.5 65 2.7 NW 7 11 4 6 1013.8 - 0.0
02/02:00am 7.3 4.2 1.6 67 2.5 NNW 7 11 4 6 1014.3 1012.2 0.0
02/01:30am 7.6 4.2 1.7 66 2.6 NNW 9 13 5 7 1014.6 - 0.0
02/01:00am 8.9 4.8 2.3 63 3.0 NNW 13 17 7 9 1015.1 1013.1 0.0
02/12:30am 7.2 3.5 2.3 71 2.2 NW 11 13 6 7 1015.5 - 0.0
02/12:00am 7.2 3.8 1.9 69 2.3 NW 9 11 5 6 1015.8 1013.7 0.0
 
Date/Time
EST
Temp
°C
App
Temp
°C
Dew
Point
Rel
Hum
%
Delta-T
°C
Wind Press
QNH
hPa
Press
MSL
hPa
Rain
since 9 am
mm
Dir
 
Spd
km/h
Gust
km/h
Spd
kts
Gust
kts
01/11:30pm 8.9 4.1 2.5 64 2.9 NNW 17 22 9 12 1016.0 - 0.0
01/11:00pm 9.9 4.6 3.0 62 3.2 NNW 20 24 11 13 1016.1 1014.1 0.0
01/10:30pm 8.7 4.8 3.3 69 2.5 NW 13 17 7 9 1016.0 - 0.0
01/10:00pm 9.0 5.2 3.8 70 2.4 NW 13 15 7 8 1016.6 1014.5 0.0
01/09:30pm 9.1 4.9 3.9 70 2.4 NW 15 19 8 10 1016.7 - 0.0
01/09:00pm 8.9 4.8 4.1 72 2.2 NW 15 19 8 10 1016.9 1014.9 0.0
01/08:30pm 8.6 4.4 3.8 72 2.2 NW 15 17 8 9 1016.9 - 0.0
01/08:00pm 9.7 5.6 4.1 68 2.6 NW 15 19 8 10 1016.8 1014.8 0.0
01/07:30pm 10.6 6.8 4.1 64 3.1 NW 13 17 7 9 1017.0 - 0.0
01/07:00pm 10.9 6.3 3.9 62 3.3 NW 17 20 9 11 1017.1 1015.1 0.0
01/06:30pm 10.4 6.6 3.7 63 3.1 NNW 13 17 7 9 1017.0 - 0.0
01/06:00pm 10.0 6.0 3.1 62 3.2 NW 13 17 7 9 1016.8 1014.8 0.0
01/05:30pm 12.2 7.9 3.4 55 4.2 WNW 15 20 8 11 1016.8 - 0.0
01/05:00pm 14.1 9.1 3.8 50 5.0 W 19 24 10 13 1016.6 1014.5 0.0
01/04:30pm 14.7 9.8 4.1 49 5.2 NW 19 30 10 16 1016.4 - 0.0
01/04:00pm 15.0 9.5 3.8 47 5.5 NW 22 28 12 15 1016.3 1014.2 0.0
01/03:30pm 15.4 10.4 4.8 49 5.3 WNW 20 30 11 16 1016.1 - 0.0
01/03:00pm 15.6 9.7 3.7 45 5.8 W 24 30 13 16 1016.6 1014.5 0.0
01/02:30pm 15.5 9.1 3.3 44 5.9 WNW 26 35 14 19 1016.7 - 0.0
01/02:00pm 15.8 10.5 4.8 48 5.5 WNW 22 32 12 17 1016.8 1014.8 0.0
01/01:30pm 15.6 9.6 5.5 51 5.1 WNW 26 35 14 19 1017.6 - 0.0
01/01:00pm 15.4 9.4 5.3 51 5.1 W 26 39 14 21 1017.8 1015.8 0.0
01/12:30pm 15.0 9.2 4.4 49 5.2 W 24 32 13 17 1018.3 - 0.0
01/12:00pm 14.7 8.2 4.7 51 4.9 W 28 39 15 21 1018.6 1016.6 0.0
01/11:30am 14.6 8.5 4.6 51 4.9 WNW 26 33 14 18 1018.8 - 0.0
01/11:00am 13.9 7.2 3.9 51 4.8 W 28 39 15 21 1019.0 1017.0 0.0
01/10:30am 13.7 7.2 4.8 55 4.4 W 28 41 15 22 1019.4 - 0.0
01/10:00am 12.8 6.2 4.0 55 4.2 W 28 43 15 23 1019.8 1017.8 0.0
01/09:30am 13.1 7.8 6.7 65 3.3 WNW 24 33 13 18 1020.1 - 0.0
01/09:00am 12.0 7.6 6.7 70 2.7 WNW 19 28 10 15 1020.0 1019.7 0.0
01/08:30am 11.2 7.3 7.1 76 2.1 WNW 17 24 9 13 1020.1 - 0.0
01/08:00am 9.9 6.8 7.2 83 1.4 NW 13 17 7 9 1019.9 1019.6 0.0
01/07:30am 8.4 8.0 8.1 98 0.2 CALM 0 4 0 2 1019.7 - 0.0
01/07:00am 6.2 4.2 6.1 99 0.0 NNE 6 7 3 4 1019.4 1019.0 0.0
01/06:30am 5.7 4.7 5.6 99 0.0 CALM 0 0 0 0 1019.1 - 0.0
01/06:00am 5.1 3.2 5.0 99 0.0 NNE 4 6 2 3 1018.9 1018.6 0.0
01/05:30am 4.8 2.5 4.7 99 0.0 NE 6 7 3 4 1018.7 - 0.0
01/05:05am 4.8 2.9 4.7 99 0.0 ENE 4 9 2 5 1018.6 - 0.0
01/05:00am 4.1 2.4 4.0 99 0.0 ENE 2 9 1 5 1018.5 1018.1 0.0
01/04:34am 3.5 1.7 3.4 99 0.0 NE 2 7 1 4 1018.7 - 0.0
01/04:30am 4.1 2.0 4.0 99 0.0 ENE 4 9 2 5 1018.6 - 0.0
01/04:00am 4.6 3.0 4.5 99 0.0 E 2 6 1 3 1018.5 1018.1 0.0
01/03:34am 5.4 3.0 5.3 99 0.0 E 7 9 4 5 1018.4 - 0.0
01/03:30am 5.5 3.1 5.4 99 0.0 ENE 7 9 4 5 1018.4 - 0.0
01/03:14am 4.9 2.6 4.8 99 0.0 ENE 6 9 3 5 1018.4 - 0.0
01/03:11am 4.3 1.9 4.2 99 0.0 NE 6 9 3 5 1018.4 - 0.0
01/03:00am 4.6 2.2 4.5 99 0.0 NE 6 9 3 5 1018.5 1018.1 0.0
01/02:30am 6.2 3.2 6.1 99 0.0 ENE 11 11 6 6 1018.6 - 0.0
01/02:12am 6.4 3.8 6.3 99 0.0 ENE 9 11 5 6 1018.7 - 0.0
01/02:00am 6.2 3.9 5.9 98 0.1 ENE 7 9 4 5 1018.9 1018.6 0.0
01/01:30am 5.8 3.5 5.5 98 0.1 ENE 7 9 4 5 1019.1 - 0.0
01/01:04am 5.3 2.5 5.0 98 0.1 ENE 9 9 5 5 1019.4 - 0.0
01/01:00am 5.8 3.5 5.5 98 0.1 ENE 7 9 4 5 1019.5 1019.2 0.0
01/12:30am 6.5 5.2 6.2 98 0.1 ENE 2 6 1 3 1019.6 - 0.0
01/12:00am 6.3 4.0 5.7 96 0.3 ENE 7 9 4 5 1019.6 1019.3 0.0
 
Date/Time
EST
Temp
°C
App
Temp
°C
Dew
Point
Rel
Hum
%
Delta-T
°C
Wind Press
QNH
hPa
Press
MSL
hPa
Rain
since 9 am
mm
Dir
 
Spd
km/h
Gust
km/h
Spd
kts
Gust
kts
31/11:30pm 7.5 5.0 6.6 94 0.4 E 9 9 5 5 1019.7 - 0.0
31/11:00pm 7.8 5.2 6.1 89 0.8 SSE 9 11 5 6 1019.5 1019.2 0.0
31/10:30pm 8.2 7.4 6.7 90 0.7 CALM 0 2 0 1 1019.6 - 0.0
31/10:00pm 7.1 5.3 5.3 88 0.9 S 4 7 2 4 1019.7 1019.4 0.0
31/09:30pm 8.0 5.5 4.8 80 1.5 SE 7 9 4 5 1019.8 - 0.0
31/09:00pm 9.4 6.8 6.1 80 1.6 S 9 11 5 6 1019.9 1019.6 0.0
31/08:30pm 9.5 7.3 6.4 81 1.5 S 7 9 4 5 1020.0 - 0.0
31/08:00pm 9.6 6.4 6.7 82 1.4 SSW 13 13 7 7 1019.8 1019.5 0.0
31/07:30pm 8.3 4.9 5.9 85 1.2 WSW 13 13 7 7 1019.7 - 0.0
31/07:00pm 10.1 7.0 7.2 82 1.5 SW 13 15 7 8 1019.3 1018.9 0.0
31/06:30pm 10.5 7.5 7.7 83 1.4 SW 13 15 7 8 1018.9 - 0.0
31/06:00pm 11.4 8.8 7.7 78 1.9 SW 11 11 6 6 1018.7 1018.4 0.0
31/05:30pm 12.8 9.8 7.7 71 2.7 SW 13 15 7 8 1018.5 - 0.0
31/05:00pm 14.8 11.0 5.9 55 4.5 SW 15 20 8 11 1018.3 1017.9 0.0
31/04:30pm 16.3 12.4 3.4 42 6.3 W 13 15 7 8 1018.0 - 0.0
31/04:00pm 16.6 12.6 2.6 39 6.7 W 13 20 7 11 1017.9 1017.6 0.0
31/03:30pm 16.9 13.3 3.2 40 6.7 W 11 17 6 9 1017.9 - 0.0
31/03:00pm 16.2 12.2 2.9 41 6.4 W 13 19 7 10 1018.0 1017.7 0.0
31/02:30pm 16.4 12.3 4.4 45 6.0 W 15 22 8 12 1018.0 - 0.0
31/02:00pm 16.6 12.2 4.6 45 6.0 W 17 22 9 12 1018.3 1017.9 0.0
31/01:30pm 16.1 12.5 5.1 48 5.5 SW 13 20 7 11 1018.5 - 0.0
31/01:00pm 16.5 12.6 7.2 54 4.9 NNW 17 19 9 10 1018.7 1018.4 0.0
31/12:30pm 15.7 13.7 7.2 57 4.5 W 7 15 4 8 1019.0 - 0.0
31/12:00pm 14.4 11.5 6.7 60 4.0 SSW 11 24 6 13 1019.4 1019.0 0.0
31/11:30am 15.1 13.4 7.6 61 3.9 W 6 15 3 8 1019.7 - 0.0
31/11:00am 14.6 12.4 6.2 57 4.3 N 7 13 4 7 1020.1 1019.8 0.0
31/10:30am 14.1 12.0 8.1 67 3.2 NNE 9 15 5 8 1020.5 - 0.0
31/10:00am 13.0 10.4 7.9 71 2.7 E 11 17 6 9 1020.6 1020.3 0.0
31/09:30am 11.8 8.7 7.3 74 2.3 ENE 13 19 7 10 1020.6 - 0.0
31/09:00am 11.6 9.0 7.9 78 1.9 E 11 17 6 9 1021.0 1020.7 0.0
31/08:30am 10.6 7.6 7.5 81 1.6 E 13 17 7 9 1021.3 - 0.0
31/08:27am 10.8 7.8 7.9 82 1.5 E 13 17 7 9 1020.9 - 0.0
31/08:00am 9.3 6.3 7.6 89 0.9 E 13 20 7 11 1021.3 1021.0 0.0
31/07:52am 9.1 6.3 7.1 87 1.0 ENE 11 15 6 8 1021.1 - 0.0
31/07:30am 9.0 6.7 7.3 89 0.9 ENE 9 11 5 6 1020.9 - 0.0
31/07:27am 9.0 6.7 7.5 90 0.8 ENE 9 11 5 6 1020.9 - 0.0
31/07:00am 8.6 6.4 7.7 94 0.5 E 9 11 5 6 1020.8 1020.5 0.0
31/06:30am 7.7 5.0 7.4 98 0.1 ESE 11 19 6 10 1020.6 - 0.0
31/06:04am 6.7 4.5 6.4 98 0.1 ESE 7 9 4 5 1020.3 - 0.0
31/06:00am 6.5 4.3 6.2 98 0.1 ESE 7 9 4 5 1020.3 1020.0 0.0
31/05:30am 6.4 4.4 6.1 98 0.1 ESE 6 7 3 4 1020.0 - 0.0
31/05:15am 7.0 4.9 5.9 93 0.5 SE 6 7 3 4 1020.0 - 0.0
31/05:00am 7.7 5.8 6.6 93 0.5 SE 6 7 3 4 1020.0 1019.7 0.0
31/04:30am 7.9 5.5 7.0 94 0.4 SE 9 17 5 9 1020.1 - 0.0
31/04:00am 7.9 4.7 6.7 92 0.6 SSE 13 20 7 11 1019.9 1019.6 0.0
31/03:30am 7.9 5.4 6.7 92 0.6 SSE 9 13 5 7 1019.9 - 0.0
31/03:00am 7.9 4.9 6.2 89 0.8 S 11 17 6 9 1019.9 1019.6 0.0
31/02:30am 7.2 5.0 6.0 92 0.6 S 7 9 4 5 1020.0 - 0.0
31/02:00am 7.3 5.3 6.2 93 0.5 SE 6 9 3 5 1020.1 1019.8 0.0
31/01:30am 6.0 4.9 5.0 93 0.5 CALM 0 0 0 0 1020.3 - 0.0
31/01:00am 6.2 3.8 5.3 94 0.4 WNW 7 7 4 4 1020.6 1020.3 0.0
31/12:30am 7.5 5.3 5.1 85 1.1 S 6 7 3 4 1020.8 - 0.0
31/12:00am 8.3 5.6 5.4 82 1.4 S 9 15 5 8 1021.1 1020.9 0.0
 
Date/Time
EST
Temp
°C
App
Temp
°C
Dew
Point
Rel
Hum
%
Delta-T
°C
Wind Press
QNH
hPa
Press
MSL
hPa
Rain
since 9 am
mm
Dir
 
Spd
km/h
Gust
km/h
Spd
kts
Gust
kts
30/11:30pm 8.7 5.6 5.6 81 1.5 S 11 15 6 8 1021.3 - 0.0
30/11:00pm 8.7 5.3 6.0 83 1.3 SSE 13 20 7 11 1021.4 1021.1 0.0
30/10:30pm 8.6 5.6 6.2 85 1.2 S 11 17 6 9 1021.0 - 0.0
30/10:00pm 8.1 5.2 6.4 89 0.8 SSE 11 17 6 9 1021.0 1020.7 0.0
30/09:30pm 8.6 6.1 6.7 88 0.9 SSE 9 15 5 8 1021.3 - 0.0
30/09:00pm 9.4 6.3 7.2 86 1.1 S 13 17 7 9 1021.3 1021.0 0.0
30/08:30pm 9.9 7.6 7.3 84 1.3 SSE 9 13 5 7 1021.0 - 0.0
30/08:00pm 10.1 7.7 7.0 81 1.6 SE 9 11 5 6 1020.9 1020.6 0.0
30/07:30pm 10.4 7.5 6.7 78 1.9 SSE 11 15 6 8 1020.9 - 0.0
30/07:00pm 10.6 8.1 6.7 77 2.0 SSE 9 13 5 7 1020.8 1020.5 0.0
30/06:30pm 10.9 8.0 6.3 73 2.3 SSE 11 13 6 7 1020.6 - 0.0
30/06:00pm 11.0 8.4 6.0 71 2.5 S 9 13 5 7 1020.6 1020.3 0.0
30/05:30pm 11.1 7.3 6.0 71 2.5 S 15 19 8 10 1020.7 - 0.0
30/05:00pm 11.4 8.1 6.5 72 2.5 SSE 13 19 7 10 1020.5 1020.2 0.0
30/04:30pm 11.8 8.3 7.3 74 2.3 S 15 20 8 11 1020.4 - 0.0
30/04:00pm 12.0 8.0 6.7 70 2.7 SSE 17 24 9 13 1020.1 1019.8 0.0
30/03:30pm 12.2 7.8 7.3 72 2.5 S 20 26 11 14 1020.0 - 0.0
30/03:00pm 13.0 8.7 7.0 67 3.1 S 19 26 10 14 1019.9 1019.6 0.0
30/02:30pm 12.8 8.3 7.0 68 3.0 S 20 28 11 15 1020.1 - 0.0
30/02:00pm 13.2 8.8 7.2 67 3.1 S 20 30 11 16 1020.3 1020.0 0.0
30/01:30pm 12.9 8.3 6.7 66 3.2 S 20 32 11 17 1020.5 - 0.0
30/01:00pm 13.3 8.1 7.3 67 3.1 S 24 35 13 19 1020.6 1020.3 0.0
30/12:30pm 12.8 7.5 7.0 68 3.0 S 24 35 13 19 1020.8 - 0.0
30/12:00pm 13.1 7.5 7.3 68 3.0 S 26 33 14 18 1021.3 1021.0 0.0
30/11:30am 11.8 6.6 7.1 73 2.4 S 24 32 13 17 1021.6 - 0.0
30/11:00am 11.4 6.5 7.1 75 2.2 S 22 35 12 19 1021.8 1021.5 0.0
30/10:30am 10.8 6.5 7.1 78 1.9 S 19 26 10 14 1021.9 - 0.0
30/10:00am 10.1 6.1 6.8 80 1.6 S 17 22 9 12 1021.9 1021.7 0.0
30/09:30am 9.0 6.0 5.9 81 1.5 S 11 17 6 9 1021.8 - 0.0

Other Formats:

Comma delimited format used in spreadsheet applications
http://www.bom.gov.au/fwo/IDN60801/IDN60801.95773.axf

JavaScript Object Notation format (JSON) in row-major order
http://www.bom.gov.au/fwo/IDN60801/IDN60801.95773.json